sensor_id;sensor_type;location;lat;lon;timestamp;temperature;humidity
11188;DHT22;5650;52.700;7.306;2022-08-19T00:00:27;17.20;99.90
11188;DHT22;5650;52.700;7.306;2022-08-19T00:02:54;17.10;99.90
11188;DHT22;5650;52.700;7.306;2022-08-19T00:05:24;17.10;99.90
11188;DHT22;5650;52.700;7.306;2022-08-19T00:07:57;17.10;99.90
11188;DHT22;5650;52.700;7.306;2022-08-19T00:10:25;17.00;99.90
11188;DHT22;5650;52.700;7.306;2022-08-19T00:12:52;17.00;99.90
11188;DHT22;5650;52.700;7.306;2022-08-19T00:15:21;16.90;99.90
11188;DHT22;5650;52.700;7.306;2022-08-19T00:17:49;16.90;99.90
11188;DHT22;5650;52.700;7.306;2022-08-19T00:20:25;16.90;99.90
11188;DHT22;5650;52.700;7.306;2022-08-19T00:23:00;16.90;99.90
11188;DHT22;5650;52.700;7.306;2022-08-19T00:25:29;16.90;99.90
11188;DHT22;5650;52.700;7.306;2022-08-19T00:27:59;16.90;99.90
11188;DHT22;5650;52.700;7.306;2022-08-19T00:30:28;16.90;99.90
11188;DHT22;5650;52.700;7.306;2022-08-19T00:33:01;16.90;99.90
11188;DHT22;5650;52.700;7.306;2022-08-19T00:35:28;16.90;99.90
11188;DHT22;5650;52.700;7.306;2022-08-19T00:38:02;16.90;99.90
11188;DHT22;5650;52.700;7.306;2022-08-19T00:40:31;16.80;99.90
11188;DHT22;5650;52.700;7.306;2022-08-19T00:42:58;16.80;99.90
11188;DHT22;5650;52.700;7.306;2022-08-19T00:45:28;16.70;99.90
11188;DHT22;5650;52.700;7.306;2022-08-19T00:47:58;16.70;99.90
11188;DHT22;5650;52.700;7.306;2022-08-19T00:50:32;16.70;99.90
11188;DHT22;5650;52.700;7.306;2022-08-19T00:53:01;16.70;99.90
11188;DHT22;5650;52.700;7.306;2022-08-19T00:55:31;16.70;99.90
11188;DHT22;5650;52.700;7.306;2022-08-19T00:58:07;16.70;99.90
11188;DHT22;5650;52.700;7.306;2022-08-19T01:00:38;16.60;99.90
11188;DHT22;5650;52.700;7.306;2022-08-19T01:03:07;16.60;99.90
11188;DHT22;5650;52.700;7.306;2022-08-19T01:05:35;16.60;99.90
11188;DHT22;5650;52.700;7.306;2022-08-19T01:08:04;16.50;99.90
11188;DHT22;5650;52.700;7.306;2022-08-19T01:10:35;16.50;99.90
11188;DHT22;5650;52.700;7.306;2022-08-19T01:13:04;16.40;99.90
11188;DHT22;5650;52.700;7.306;2022-08-19T01:15:43;16.40;99.90
11188;DHT22;5650;52.700;7.306;2022-08-19T01:18:16;16.40;99.90
11188;DHT22;5650;52.700;7.306;2022-08-19T01:20:44;16.30;99.90
11188;DHT22;5650;52.700;7.306;2022-08-19T01:23:14;16.30;99.90
11188;DHT22;5650;52.700;7.306;2022-08-19T01:25:44;16.30;99.90
11188;DHT22;5650;52.700;7.306;2022-08-19T01:28:17;16.30;99.90
11188;DHT22;5650;52.700;7.306;2022-08-19T01:30:47;16.30;99.90
11188;DHT22;5650;52.700;7.306;2022-08-19T01:33:18;16.30;99.90
11188;DHT22;5650;52.700;7.306;2022-08-19T01:35:46;16.30;99.90
11188;DHT22;5650;52.700;7.306;2022-08-19T01:38:22;16.30;99.90
11188;DHT22;5650;52.700;7.306;2022-08-19T01:40:52;16.30;99.90
11188;DHT22;5650;52.700;7.306;2022-08-19T01:43:20;16.30;99.90
11188;DHT22;5650;52.700;7.306;2022-08-19T01:45:50;16.20;99.90
11188;DHT22;5650;52.700;7.306;2022-08-19T01:48:21;16.20;99.90
11188;DHT22;5650;52.700;7.306;2022-08-19T01:50:49;16.20;99.90
11188;DHT22;5650;52.700;7.306;2022-08-19T01:53:16;16.20;99.90
11188;DHT22;5650;52.700;7.306;2022-08-19T01:55:45;16.20;99.90
11188;DHT22;5650;52.700;7.306;2022-08-19T01:58:21;16.20;99.90
11188;DHT22;5650;52.700;7.306;2022-08-19T02:00:49;16.20;99.90
11188;DHT22;5650;52.700;7.306;2022-08-19T02:03:16;16.20;99.90
11188;DHT22;5650;52.700;7.306;2022-08-19T02:05:46;16.20;99.90
11188;DHT22;5650;52.700;7.306;2022-08-19T02:08:16;16.20;99.90
11188;DHT22;5650;52.700;7.306;2022-08-19T02:10:45;16.10;99.90
11188;DHT22;5650;52.700;7.306;2022-08-19T02:13:14;16.10;99.90
11188;DHT22;5650;52.700;7.306;2022-08-19T02:15:42;16.10;99.90
11188;DHT22;5650;52.700;7.306;2022-08-19T02:18:09;16.10;99.90
11188;DHT22;5650;52.700;7.306;2022-08-19T02:20:40;16.10;99.90
11188;DHT22;5650;52.700;7.306;2022-08-19T02:23:08;16.10;99.90
11188;DHT22;5650;52.700;7.306;2022-08-19T02:25:36;16.00;99.90
11188;DHT22;5650;52.700;7.306;2022-08-19T02:28:08;16.00;99.90
11188;DHT22;5650;52.700;7.306;2022-08-19T02:30:35;16.00;99.90
11188;DHT22;5650;52.700;7.306;2022-08-19T02:33:05;16.00;99.90
11188;DHT22;5650;52.700;7.306;2022-08-19T02:35:32;16.00;99.90
11188;DHT22;5650;52.700;7.306;2022-08-19T02:38:00;16.00;99.90
11188;DHT22;5650;52.700;7.306;2022-08-19T02:40:48;16.00;99.90
11188;DHT22;5650;52.700;7.306;2022-08-19T02:43:19;16.00;99.90
11188;DHT22;5650;52.700;7.306;2022-08-19T02:45:47;15.90;99.90
11188;DHT22;5650;52.700;7.306;2022-08-19T02:48:19;15.90;99.90
11188;DHT22;5650;52.700;7.306;2022-08-19T02:50:53;15.90;99.90
11188;DHT22;5650;52.700;7.306;2022-08-19T02:53:22;15.90;99.90
11188;DHT22;5650;52.700;7.306;2022-08-19T02:55:50;15.80;99.90
11188;DHT22;5650;52.700;7.306;2022-08-19T02:58:22;15.80;99.90
11188;DHT22;5650;52.700;7.306;2022-08-19T03:00:54;15.80;99.90
11188;DHT22;5650;52.700;7.306;2022-08-19T03:03:22;15.80;99.90
11188;DHT22;5650;52.700;7.306;2022-08-19T03:06:03;15.80;99.90
11188;DHT22;5650;52.700;7.306;2022-08-19T03:08:30;15.80;99.90
11188;DHT22;5650;52.700;7.306;2022-08-19T03:11:01;15.80;99.90
11188;DHT22;5650;52.700;7.306;2022-08-19T03:13:30;15.80;99.90
11188;DHT22;5650;52.700;7.306;2022-08-19T03:16:00;15.80;99.90
11188;DHT22;5650;52.700;7.306;2022-08-19T03:18:31;15.80;99.90
11188;DHT22;5650;52.700;7.306;2022-08-19T03:21:01;15.80;99.90
11188;DHT22;5650;52.700;7.306;2022-08-19T03:23:28;15.80;99.90
11188;DHT22;5650;52.700;7.306;2022-08-19T03:25:55;15.80;99.90
11188;DHT22;5650;52.700;7.306;2022-08-19T03:28:30;15.70;99.90
11188;DHT22;5650;52.700;7.306;2022-08-19T03:30:59;15.70;99.90
11188;DHT22;5650;52.700;7.306;2022-08-19T03:33:28;15.70;99.90
11188;DHT22;5650;52.700;7.306;2022-08-19T03:36:05;15.70;99.90
11188;DHT22;5650;52.700;7.306;2022-08-19T03:38:35;15.70;99.90
11188;DHT22;5650;52.700;7.306;2022-08-19T03:41:04;15.60;99.90
11188;DHT22;5650;52.700;7.306;2022-08-19T03:43:34;15.60;99.90
11188;DHT22;5650;52.700;7.306;2022-08-19T03:46:07;15.50;99.90
11188;DHT22;5650;52.700;7.306;2022-08-19T03:48:35;15.50;99.90
11188;DHT22;5650;52.700;7.306;2022-08-19T03:51:07;15.50;99.90
11188;DHT22;5650;52.700;7.306;2022-08-19T03:53:35;15.40;99.90
11188;DHT22;5650;52.700;7.306;2022-08-19T03:56:08;15.40;99.90
11188;DHT22;5650;52.700;7.306;2022-08-19T03:58:37;15.40;99.90
11188;DHT22;5650;52.700;7.306;2022-08-19T04:01:08;15.40;99.90
11188;DHT22;5650;52.700;7.306;2022-08-19T04:03:38;15.40;99.90
11188;DHT22;5650;52.700;7.306;2022-08-19T04:06:13;15.40;99.90
11188;DHT22;5650;52.700;7.306;2022-08-19T04:08:45;15.30;99.90
11188;DHT22;5650;52.700;7.306;2022-08-19T04:11:21;15.40;99.90
11188;DHT22;5650;52.700;7.306;2022-08-19T04:13:59;15.40;99.90
11188;DHT22;5650;52.700;7.306;2022-08-19T04:16:29;15.40;99.90
11188;DHT22;5650;52.700;7.306;2022-08-19T04:18:59;15.40;99.90
11188;DHT22;5650;52.700;7.306;2022-08-19T04:21:27;15.40;99.90
11188;DHT22;5650;52.700;7.306;2022-08-19T04:23:55;15.50;99.90
11188;DHT22;5650;52.700;7.306;2022-08-19T04:26:26;15.50;99.90
11188;DHT22;5650;52.700;7.306;2022-08-19T04:28:54;15.50;99.90
11188;DHT22;5650;52.700;7.306;2022-08-19T04:31:25;15.50;99.90
11188;DHT22;5650;52.700;7.306;2022-08-19T04:33:53;15.50;99.90
11188;DHT22;5650;52.700;7.306;2022-08-19T04:36:24;15.50;99.90
11188;DHT22;5650;52.700;7.306;2022-08-19T04:38:54;15.60;99.90
11188;DHT22;5650;52.700;7.306;2022-08-19T04:41:21;15.60;99.90
11188;DHT22;5650;52.700;7.306;2022-08-19T04:44:06;15.60;99.90
11188;DHT22;5650;52.700;7.306;2022-08-19T04:46:35;15.60;99.90
11188;DHT22;5650;52.700;7.306;2022-08-19T04:49:03;15.70;99.90
11188;DHT22;5650;52.700;7.306;2022-08-19T04:51:31;15.70;99.90
11188;DHT22;5650;52.700;7.306;2022-08-19T04:54:02;15.70;99.90
11188;DHT22;5650;52.700;7.306;2022-08-19T04:56:29;15.80;99.90
11188;DHT22;5650;52.700;7.306;2022-08-19T04:58:56;15.80;99.90
11188;DHT22;5650;52.700;7.306;2022-08-19T05:01:29;15.80;99.90
11188;DHT22;5650;52.700;7.306;2022-08-19T05:03:59;15.90;99.90
11188;DHT22;5650;52.700;7.306;2022-08-19T05:06:31;16.00;99.90
11188;DHT22;5650;52.700;7.306;2022-08-19T05:08:59;16.00;99.90
11188;DHT22;5650;52.700;7.306;2022-08-19T05:11:29;16.00;99.90
11188;DHT22;5650;52.700;7.306;2022-08-19T05:13:57;16.10;99.90
11188;DHT22;5650;52.700;7.306;2022-08-19T05:16:25;16.10;99.90
11188;DHT22;5650;52.700;7.306;2022-08-19T05:18:53;16.20;99.90
11188;DHT22;5650;52.700;7.306;2022-08-19T05:21:40;16.30;99.90
11188;DHT22;5650;52.700;7.306;2022-08-19T05:24:24;16.40;99.90
11188;DHT22;5650;52.700;7.306;2022-08-19T05:26:53;16.50;99.90
11188;DHT22;5650;52.700;7.306;2022-08-19T05:29:26;16.60;99.90
11188;DHT22;5650;52.700;7.306;2022-08-19T05:31:54;16.70;99.90
11188;DHT22;5650;52.700;7.306;2022-08-19T05:34:23;16.80;99.90
11188;DHT22;5650;52.700;7.306;2022-08-19T05:37:03;16.90;99.90
11188;DHT22;5650;52.700;7.306;2022-08-19T05:39:33;17.20;99.90
11188;DHT22;5650;52.700;7.306;2022-08-19T05:42:04;18.00;99.90
11188;DHT22;5650;52.700;7.306;2022-08-19T05:44:39;18.90;99.90
11188;DHT22;5650;52.700;7.306;2022-08-19T05:47:10;19.60;99.90
11188;DHT22;5650;52.700;7.306;2022-08-19T05:49:42;20.10;99.90
11188;DHT22;5650;52.700;7.306;2022-08-19T05:52:12;20.10;99.90
11188;DHT22;5650;52.700;7.306;2022-08-19T05:54:41;19.80;99.90
11188;DHT22;5650;52.700;7.306;2022-08-19T05:57:09;19.50;99.90
11188;DHT22;5650;52.700;7.306;2022-08-19T05:59:36;19.50;99.90
11188;DHT22;5650;52.700;7.306;2022-08-19T06:02:05;19.70;99.90
11188;DHT22;5650;52.700;7.306;2022-08-19T06:04:35;19.60;99.90
11188;DHT22;5650;52.700;7.306;2022-08-19T06:07:03;19.40;99.90
11188;DHT22;5650;52.700;7.306;2022-08-19T06:09:31;19.20;99.90
11188;DHT22;5650;52.700;7.306;2022-08-19T06:11:59;19.10;99.90
11188;DHT22;5650;52.700;7.306;2022-08-19T06:14:28;18.90;99.90
11188;DHT22;5650;52.700;7.306;2022-08-19T06:16:59;18.80;99.90
11188;DHT22;5650;52.700;7.306;2022-08-19T06:19:28;18.70;99.90
11188;DHT22;5650;52.700;7.306;2022-08-19T06:22:02;18.70;99.90
11188;DHT22;5650;52.700;7.306;2022-08-19T06:24:47;18.80;99.90
11188;DHT22;5650;52.700;7.306;2022-08-19T06:27:18;18.80;99.90
11188;DHT22;5650;52.700;7.306;2022-08-19T06:29:48;18.80;99.90
11188;DHT22;5650;52.700;7.306;2022-08-19T06:32:18;19.10;99.90
11188;DHT22;5650;52.700;7.306;2022-08-19T06:34:46;19.80;99.90
11188;DHT22;5650;52.700;7.306;2022-08-19T06:37:13;20.50;99.90
11188;DHT22;5650;52.700;7.306;2022-08-19T06:39:43;21.10;99.90
11188;DHT22;5650;52.700;7.306;2022-08-19T06:42:15;21.40;99.90
11188;DHT22;5650;52.700;7.306;2022-08-19T06:44:45;21.40;99.90
11188;DHT22;5650;52.700;7.306;2022-08-19T06:47:16;21.20;99.90
11188;DHT22;5650;52.700;7.306;2022-08-19T06:49:44;21.10;99.90
11188;DHT22;5650;52.700;7.306;2022-08-19T06:52:17;21.10;99.90
11188;DHT22;5650;52.700;7.306;2022-08-19T06:54:46;21.00;99.90
11188;DHT22;5650;52.700;7.306;2022-08-19T06:57:29;21.20;99.90
11188;DHT22;5650;52.700;7.306;2022-08-19T06:59:58;21.80;99.90
11188;DHT22;5650;52.700;7.306;2022-08-19T07:02:25;22.40;99.90
11188;DHT22;5650;52.700;7.306;2022-08-19T07:04:53;23.00;99.90
11188;DHT22;5650;52.700;7.306;2022-08-19T07:07:31;23.30;99.90
11188;DHT22;5650;52.700;7.306;2022-08-19T07:10:02;23.40;99.90
11188;DHT22;5650;52.700;7.306;2022-08-19T07:12:32;23.50;99.90
11188;DHT22;5650;52.700;7.306;2022-08-19T07:15:00;23.70;99.90
11188;DHT22;5650;52.700;7.306;2022-08-19T07:17:33;23.90;99.90
11188;DHT22;5650;52.700;7.306;2022-08-19T07:20:01;24.10;99.90
11188;DHT22;5650;52.700;7.306;2022-08-19T07:22:30;24.30;99.90
11188;DHT22;5650;52.700;7.306;2022-08-19T07:24:58;24.40;99.90
11188;DHT22;5650;52.700;7.306;2022-08-19T07:27:28;24.50;99.90
11188;DHT22;5650;52.700;7.306;2022-08-19T07:30:00;24.80;99.90
11188;DHT22;5650;52.700;7.306;2022-08-19T07:32:34;25.00;99.90
11188;DHT22;5650;52.700;7.306;2022-08-19T07:35:01;25.30;99.90
11188;DHT22;5650;52.700;7.306;2022-08-19T07:37:31;25.50;99.90
11188;DHT22;5650;52.700;7.306;2022-08-19T07:39:58;25.60;99.90
11188;DHT22;5650;52.700;7.306;2022-08-19T07:42:34;25.80;99.90
11188;DHT22;5650;52.700;7.306;2022-08-19T07:45:04;25.70;99.90
11188;DHT22;5650;52.700;7.306;2022-08-19T07:47:38;25.40;99.90
11188;DHT22;5650;52.700;7.306;2022-08-19T07:50:10;25.20;99.90
11188;DHT22;5650;52.700;7.306;2022-08-19T07:52:37;25.00;99.90
11188;DHT22;5650;52.700;7.306;2022-08-19T07:55:20;25.10;99.90
11188;DHT22;5650;52.700;7.306;2022-08-19T07:57:49;25.30;99.90
11188;DHT22;5650;52.700;7.306;2022-08-19T08:00:19;25.60;99.90
11188;DHT22;5650;52.700;7.306;2022-08-19T08:02:46;25.90;99.90
11188;DHT22;5650;52.700;7.306;2022-08-19T08:05:13;26.00;99.90
11188;DHT22;5650;52.700;7.306;2022-08-19T08:07:58;26.20;99.90
11188;DHT22;5650;52.700;7.306;2022-08-19T08:10:42;26.40;99.90
11188;DHT22;5650;52.700;7.306;2022-08-19T08:13:11;26.50;99.90
11188;DHT22;5650;52.700;7.306;2022-08-19T08:15:40;26.40;99.90
11188;DHT22;5650;52.700;7.306;2022-08-19T08:18:07;26.40;99.90
11188;DHT22;5650;52.700;7.306;2022-08-19T08:20:37;26.30;99.90
11188;DHT22;5650;52.700;7.306;2022-08-19T08:23:04;26.30;99.90
11188;DHT22;5650;52.700;7.306;2022-08-19T08:25:52;26.40;99.90
11188;DHT22;5650;52.700;7.306;2022-08-19T08:28:23;26.50;99.90
11188;DHT22;5650;52.700;7.306;2022-08-19T08:30:55;26.50;99.90
11188;DHT22;5650;52.700;7.306;2022-08-19T08:33:24;26.50;99.90
11188;DHT22;5650;52.700;7.306;2022-08-19T08:35:55;26.50;99.90
11188;DHT22;5650;52.700;7.306;2022-08-19T08:38:25;26.60;99.90
11188;DHT22;5650;52.700;7.306;2022-08-19T08:40:59;26.80;99.90
11188;DHT22;5650;52.700;7.306;2022-08-19T08:43:35;27.00;99.90
11188;DHT22;5650;52.700;7.306;2022-08-19T08:46:11;27.10;99.90
11188;DHT22;5650;52.700;7.306;2022-08-19T08:48:46;27.20;99.90
11188;DHT22;5650;52.700;7.306;2022-08-19T08:51:19;27.10;99.90
11188;DHT22;5650;52.700;7.306;2022-08-19T08:53:49;27.00;99.90
11188;DHT22;5650;52.700;7.306;2022-08-19T08:56:20;27.10;99.90
11188;DHT22;5650;52.700;7.306;2022-08-19T08:58:53;27.40;99.90
11188;DHT22;5650;52.700;7.306;2022-08-19T09:01:26;27.80;99.90
11188;DHT22;5650;52.700;7.306;2022-08-19T09:03:53;28.20;99.70
11188;DHT22;5650;52.700;7.306;2022-08-19T09:06:28;28.20;98.70
11188;DHT22;5650;52.700;7.306;2022-08-19T09:09:04;27.90;99.00
11188;DHT22;5650;52.700;7.306;2022-08-19T09:11:45;27.50;99.40
11188;DHT22;5650;52.700;7.306;2022-08-19T09:14:28;27.20;99.90
11188;DHT22;5650;52.700;7.306;2022-08-19T09:16:59;26.90;99.90
11188;DHT22;5650;52.700;7.306;2022-08-19T09:19:29;26.70;99.90
11188;DHT22;5650;52.700;7.306;2022-08-19T09:21:56;26.60;99.90
11188;DHT22;5650;52.700;7.306;2022-08-19T09:24:26;26.40;99.90
11188;DHT22;5650;52.700;7.306;2022-08-19T09:26:53;26.30;99.90
11188;DHT22;5650;52.700;7.306;2022-08-19T09:29:20;26.20;99.90
11188;DHT22;5650;52.700;7.306;2022-08-19T09:31:50;26.10;99.90
11188;DHT22;5650;52.700;7.306;2022-08-19T09:34:22;26.00;99.90
11188;DHT22;5650;52.700;7.306;2022-08-19T09:36:50;25.90;99.90
11188;DHT22;5650;52.700;7.306;2022-08-19T09:39:21;25.90;99.90
11188;DHT22;5650;52.700;7.306;2022-08-19T09:41:48;25.90;99.90
11188;DHT22;5650;52.700;7.306;2022-08-19T09:44:21;25.70;99.90
11188;DHT22;5650;52.700;7.306;2022-08-19T09:46:52;25.70;99.90
11188;DHT22;5650;52.700;7.306;2022-08-19T09:49:23;25.70;99.90
11188;DHT22;5650;52.700;7.306;2022-08-19T09:51:51;25.70;99.90
11188;DHT22;5650;52.700;7.306;2022-08-19T09:54:22;25.70;99.90
11188;DHT22;5650;52.700;7.306;2022-08-19T09:56:49;25.80;99.90
11188;DHT22;5650;52.700;7.306;2022-08-19T09:59:16;25.80;99.90
11188;DHT22;5650;52.700;7.306;2022-08-19T10:02:06;25.90;99.90
11188;DHT22;5650;52.700;7.306;2022-08-19T10:04:35;25.90;99.90
11188;DHT22;5650;52.700;7.306;2022-08-19T10:07:16;26.00;99.90
11188;DHT22;5650;52.700;7.306;2022-08-19T10:09:43;26.10;99.90
11188;DHT22;5650;52.700;7.306;2022-08-19T10:12:10;26.10;99.90
11188;DHT22;5650;52.700;7.306;2022-08-19T10:14:37;26.10;99.20
11188;DHT22;5650;52.700;7.306;2022-08-19T10:17:04;26.10;99.80
11188;DHT22;5650;52.700;7.306;2022-08-19T10:19:32;26.10;99.90
11188;DHT22;5650;52.700;7.306;2022-08-19T10:22:04;26.10;99.90
11188;DHT22;5650;52.700;7.306;2022-08-19T10:24:32;26.10;99.90
11188;DHT22;5650;52.700;7.306;2022-08-19T10:27:00;26.10;99.90
11188;DHT22;5650;52.700;7.306;2022-08-19T10:29:35;26.10;99.90
11188;DHT22;5650;52.700;7.306;2022-08-19T10:32:04;26.10;99.80
11188;DHT22;5650;52.700;7.306;2022-08-19T10:34:34;26.00;99.80
11188;DHT22;5650;52.700;7.306;2022-08-19T10:37:04;26.00;99.90
11188;DHT22;5650;52.700;7.306;2022-08-19T10:39:35;26.10;99.90
11188;DHT22;5650;52.700;7.306;2022-08-19T10:42:06;26.20;99.80
11188;DHT22;5650;52.700;7.306;2022-08-19T10:44:36;26.20;99.80
11188;DHT22;5650;52.700;7.306;2022-08-19T10:47:03;26.30;99.70
11188;DHT22;5650;52.700;7.306;2022-08-19T10:49:31;26.50;99.70
11188;DHT22;5650;52.700;7.306;2022-08-19T10:52:20;26.60;99.30
11188;DHT22;5650;52.700;7.306;2022-08-19T10:55:04;26.80;98.70
11188;DHT22;5650;52.700;7.306;2022-08-19T10:57:48;26.80;98.20
11188;DHT22;5650;52.700;7.306;2022-08-19T11:00:16;26.80;98.00
11188;DHT22;5650;52.700;7.306;2022-08-19T11:02:43;26.70;98.20
11188;DHT22;5650;52.700;7.306;2022-08-19T11:05:11;26.70;98.20
11188;DHT22;5650;52.700;7.306;2022-08-19T11:07:42;26.70;97.80
11188;DHT22;5650;52.700;7.306;2022-08-19T11:10:12;26.60;97.70
11188;DHT22;5650;52.700;7.306;2022-08-19T11:12:43;26.60;97.80
11188;DHT22;5650;52.700;7.306;2022-08-19T11:15:13;26.60;97.60
11188;DHT22;5650;52.700;7.306;2022-08-19T11:17:47;26.70;97.60
11188;DHT22;5650;52.700;7.306;2022-08-19T11:20:15;26.80;97.40
11188;DHT22;5650;52.700;7.306;2022-08-19T11:22:43;26.90;97.00
11188;DHT22;5650;52.700;7.306;2022-08-19T11:25:11;27.00;97.00
11188;DHT22;5650;52.700;7.306;2022-08-19T11:27:46;27.10;97.00
11188;DHT22;5650;52.700;7.306;2022-08-19T11:30:18;27.20;96.50
11188;DHT22;5650;52.700;7.306;2022-08-19T11:32:46;27.30;95.80
11188;DHT22;5650;52.700;7.306;2022-08-19T11:35:13;27.40;95.50
11188;DHT22;5650;52.700;7.306;2022-08-19T11:37:43;27.50;95.40
11188;DHT22;5650;52.700;7.306;2022-08-19T11:40:19;27.40;94.30
11188;DHT22;5650;52.700;7.306;2022-08-19T11:42:46;27.50;94.90
11188;DHT22;5650;52.700;7.306;2022-08-19T11:45:23;27.60;94.30
11188;DHT22;5650;52.700;7.306;2022-08-19T11:47:53;27.70;94.40
11188;DHT22;5650;52.700;7.306;2022-08-19T11:50:20;27.80;93.20
11188;DHT22;5650;52.700;7.306;2022-08-19T11:52:50;27.90;93.20
11188;DHT22;5650;52.700;7.306;2022-08-19T11:55:20;28.00;92.90
11188;DHT22;5650;52.700;7.306;2022-08-19T11:57:47;28.20;92.80
11188;DHT22;5650;52.700;7.306;2022-08-19T12:00:14;28.30;92.40
11188;DHT22;5650;52.700;7.306;2022-08-19T12:02:42;28.40;92.10
11188;DHT22;5650;52.700;7.306;2022-08-19T12:05:09;28.50;92.20
11188;DHT22;5650;52.700;7.306;2022-08-19T12:07:36;28.40;91.40
11188;DHT22;5650;52.700;7.306;2022-08-19T12:10:08;28.40;91.90
11188;DHT22;5650;52.700;7.306;2022-08-19T12:12:35;28.30;92.10
11188;DHT22;5650;52.700;7.306;2022-08-19T12:15:07;28.20;92.30
11188;DHT22;5650;52.700;7.306;2022-08-19T12:17:37;28.20;91.80
11188;DHT22;5650;52.700;7.306;2022-08-19T12:20:10;28.00;92.20
11188;DHT22;5650;52.700;7.306;2022-08-19T12:22:39;27.90;92.80
11188;DHT22;5650;52.700;7.306;2022-08-19T12:25:10;27.70;92.70
11188;DHT22;5650;52.700;7.306;2022-08-19T12:27:44;27.50;93.00
11188;DHT22;5650;52.700;7.306;2022-08-19T12:30:13;27.40;93.40
11188;DHT22;5650;52.700;7.306;2022-08-19T12:32:40;27.30;93.60
11188;DHT22;5650;52.700;7.306;2022-08-19T12:35:08;27.20;93.80
11188;DHT22;5650;52.700;7.306;2022-08-19T12:37:37;27.10;93.90
11188;DHT22;5650;52.700;7.306;2022-08-19T12:40:05;27.20;94.40
11188;DHT22;5650;52.700;7.306;2022-08-19T12:42:44;27.30;94.40
11188;DHT22;5650;52.700;7.306;2022-08-19T12:45:13;27.50;93.50
11188;DHT22;5650;52.700;7.306;2022-08-19T12:47:40;27.70;93.30
11188;DHT22;5650;52.700;7.306;2022-08-19T12:50:10;27.90;92.90
11188;DHT22;5650;52.700;7.306;2022-08-19T12:52:37;28.00;92.20
11188;DHT22;5650;52.700;7.306;2022-08-19T12:55:10;27.90;91.50
11188;DHT22;5650;52.700;7.306;2022-08-19T12:57:45;27.80;92.00
11188;DHT22;5650;52.700;7.306;2022-08-19T13:00:16;27.70;92.20
11188;DHT22;5650;52.700;7.306;2022-08-19T13:02:49;27.50;92.70
11188;DHT22;5650;52.700;7.306;2022-08-19T13:05:19;27.40;93.30
11188;DHT22;5650;52.700;7.306;2022-08-19T13:07:48;27.30;93.50
11188;DHT22;5650;52.700;7.306;2022-08-19T13:10:18;27.30;93.60
11188;DHT22;5650;52.700;7.306;2022-08-19T13:12:51;27.20;93.30
11188;DHT22;5650;52.700;7.306;2022-08-19T13:15:20;27.10;93.40
11188;DHT22;5650;52.700;7.306;2022-08-19T13:17:49;27.10;93.40
11188;DHT22;5650;52.700;7.306;2022-08-19T13:20:19;27.20;93.00
11188;DHT22;5650;52.700;7.306;2022-08-19T13:22:53;27.40;92.80
11188;DHT22;5650;52.700;7.306;2022-08-19T13:25:20;27.50;92.20
11188;DHT22;5650;52.700;7.306;2022-08-19T13:27:52;27.70;92.00
11188;DHT22;5650;52.700;7.306;2022-08-19T13:30:21;27.80;91.40
11188;DHT22;5650;52.700;7.306;2022-08-19T13:33:08;27.90;91.20
11188;DHT22;5650;52.700;7.306;2022-08-19T13:35:42;28.10;91.10
11188;DHT22;5650;52.700;7.306;2022-08-19T13:38:14;28.20;90.30
11188;DHT22;5650;52.700;7.306;2022-08-19T13:40:42;28.30;89.00
11188;DHT22;5650;52.700;7.306;2022-08-19T13:43:13;28.30;89.80
11188;DHT22;5650;52.700;7.306;2022-08-19T13:45:41;28.30;90.20
11188;DHT22;5650;52.700;7.306;2022-08-19T13:48:08;28.20;90.70
11188;DHT22;5650;52.700;7.306;2022-08-19T13:50:39;28.10;90.90
11188;DHT22;5650;52.700;7.306;2022-08-19T13:53:08;28.00;91.30
11188;DHT22;5650;52.700;7.306;2022-08-19T13:55:37;28.00;91.70
11188;DHT22;5650;52.700;7.306;2022-08-19T13:58:10;28.10;91.60
11188;DHT22;5650;52.700;7.306;2022-08-19T14:00:42;28.10;90.60
11188;DHT22;5650;52.700;7.306;2022-08-19T14:03:12;28.00;90.50
11188;DHT22;5650;52.700;7.306;2022-08-19T14:05:40;28.10;91.10
11188;DHT22;5650;52.700;7.306;2022-08-19T14:08:10;28.30;91.10
11188;DHT22;5650;52.700;7.306;2022-08-19T14:10:39;28.40;90.60
11188;DHT22;5650;52.700;7.306;2022-08-19T14:13:13;28.50;90.80
11188;DHT22;5650;52.700;7.306;2022-08-19T14:15:43;28.60;90.40
11188;DHT22;5650;52.700;7.306;2022-08-19T14:18:13;28.60;90.10
11188;DHT22;5650;52.700;7.306;2022-08-19T14:20:41;28.70;90.20
11188;DHT22;5650;52.700;7.306;2022-08-19T14:23:15;28.80;88.70
11188;DHT22;5650;52.700;7.306;2022-08-19T14:25:43;28.80;88.00
11188;DHT22;5650;52.700;7.306;2022-08-19T14:28:10;28.90;87.80
11188;DHT22;5650;52.700;7.306;2022-08-19T14:30:45;28.90;87.80
11188;DHT22;5650;52.700;7.306;2022-08-19T14:33:15;28.80;87.40
11188;DHT22;5650;52.700;7.306;2022-08-19T14:35:44;28.80;87.60
11188;DHT22;5650;52.700;7.306;2022-08-19T14:38:16;28.70;87.80
11188;DHT22;5650;52.700;7.306;2022-08-19T14:40:43;28.70;89.20
11188;DHT22;5650;52.700;7.306;2022-08-19T14:43:14;28.70;89.20
11188;DHT22;5650;52.700;7.306;2022-08-19T14:45:55;28.70;87.90
11188;DHT22;5650;52.700;7.306;2022-08-19T14:48:25;28.70;87.10
11188;DHT22;5650;52.700;7.306;2022-08-19T14:51:27;28.70;88.00
11188;DHT22;5650;52.700;7.306;2022-08-19T14:53:55;28.50;87.00
11188;DHT22;5650;52.700;7.306;2022-08-19T14:56:29;28.40;87.70
11188;DHT22;5650;52.700;7.306;2022-08-19T14:58:59;28.30;87.90
11188;DHT22;5650;52.700;7.306;2022-08-19T15:01:34;28.10;88.60
11188;DHT22;5650;52.700;7.306;2022-08-19T15:04:01;28.00;89.60
11188;DHT22;5650;52.700;7.306;2022-08-19T15:06:32;27.90;90.20
11188;DHT22;5650;52.700;7.306;2022-08-19T15:09:01;27.90;90.20
11188;DHT22;5650;52.700;7.306;2022-08-19T15:11:29;27.90;90.10
11188;DHT22;5650;52.700;7.306;2022-08-19T15:13:59;27.90;88.70
11188;DHT22;5650;52.700;7.306;2022-08-19T15:16:27;27.90;87.40
11188;DHT22;5650;52.700;7.306;2022-08-19T15:18:57;27.90;87.20
11188;DHT22;5650;52.700;7.306;2022-08-19T15:21:25;27.90;87.40
11188;DHT22;5650;52.700;7.306;2022-08-19T15:23:54;27.90;87.70
11188;DHT22;5650;52.700;7.306;2022-08-19T15:26:25;28.00;88.00
11188;DHT22;5650;52.700;7.306;2022-08-19T15:28:53;28.00;88.00
11188;DHT22;5650;52.700;7.306;2022-08-19T15:31:21;28.00;88.20
11188;DHT22;5650;52.700;7.306;2022-08-19T15:33:48;27.90;87.50
11188;DHT22;5650;52.700;7.306;2022-08-19T15:36:18;27.80;87.40
11188;DHT22;5650;52.700;7.306;2022-08-19T15:38:48;27.70;88.30
11188;DHT22;5650;52.700;7.306;2022-08-19T15:41:23;27.70;89.10
11188;DHT22;5650;52.700;7.306;2022-08-19T15:43:57;27.70;88.70
11188;DHT22;5650;52.700;7.306;2022-08-19T15:46:30;27.70;88.10
11188;DHT22;5650;52.700;7.306;2022-08-19T15:49:01;27.70;86.60
11188;DHT22;5650;52.700;7.306;2022-08-19T15:51:34;27.70;86.80
11188;DHT22;5650;52.700;7.306;2022-08-19T15:54:02;27.60;85.90
11188;DHT22;5650;52.700;7.306;2022-08-19T15:56:30;27.60;86.80
11188;DHT22;5650;52.700;7.306;2022-08-19T15:59:16;27.50;86.50
11188;DHT22;5650;52.700;7.306;2022-08-19T16:02:01;27.50;86.90
11188;DHT22;5650;52.700;7.306;2022-08-19T16:04:45;27.50;87.60
11188;DHT22;5650;52.700;7.306;2022-08-19T16:07:42;27.40;87.80